sensor_id;sensor_type;location;lat;lon;timestamp;pressure;altitude;pressure_sealevel;temperature;humidity
71248;BME280;62276;51.138;6.950;2022-08-20T00:02:22;101042.00;;;22.27;81.25
71248;BME280;62276;51.138;6.950;2022-08-20T00:04:52;101039.00;;;22.25;81.35
71248;BME280;62276;51.138;6.950;2022-08-20T00:07:22;101039.00;;;22.24;81.25
71248;BME280;62276;51.138;6.950;2022-08-20T00:09:52;101038.00;;;22.22;81.48
71248;BME280;62276;51.138;6.950;2022-08-20T00:12:23;101036.00;;;22.21;81.16
71248;BME280;62276;51.138;6.950;2022-08-20T00:14:53;101035.00;;;22.19;81.33
71248;BME280;62276;51.138;6.950;2022-08-20T00:17:23;101032.00;;;22.17;81.47
71248;BME280;62276;51.138;6.950;2022-08-20T00:19:53;101030.00;;;22.15;81.78
71248;BME280;62276;51.138;6.950;2022-08-20T00:22:24;101029.00;;;22.13;81.69
71248;BME280;62276;51.138;6.950;2022-08-20T00:24:54;101029.00;;;22.11;81.85
71248;BME280;62276;51.138;6.950;2022-08-20T00:27:24;101031.00;;;22.10;82.53
71248;BME280;62276;51.138;6.950;2022-08-20T00:29:54;101032.00;;;22.08;83.34
71248;BME280;62276;51.138;6.950;2022-08-20T00:32:25;101033.00;;;22.04;83.94
71248;BME280;62276;51.138;6.950;2022-08-20T00:34:55;101034.00;;;21.99;85.34
71248;BME280;62276;51.138;6.950;2022-08-20T00:37:25;101033.00;;;21.92;85.51
71248;BME280;62276;51.138;6.950;2022-08-20T00:39:55;101033.00;;;21.84;86.06
71248;BME280;62276;51.138;6.950;2022-08-20T00:42:25;101032.00;;;21.76;86.42
71248;BME280;62276;51.138;6.950;2022-08-20T00:44:56;101032.00;;;21.67;87.42
71248;BME280;62276;51.138;6.950;2022-08-20T00:47:26;101032.00;;;21.58;87.20
71248;BME280;62276;51.138;6.950;2022-08-20T00:49:56;101034.00;;;21.50;88.13
71248;BME280;62276;51.138;6.950;2022-08-20T00:52:26;101036.00;;;21.42;88.54
71248;BME280;62276;51.138;6.950;2022-08-20T00:54:58;101037.00;;;21.35;89.09
71248;BME280;62276;51.138;6.950;2022-08-20T00:57:31;101040.00;;;21.29;88.98
71248;BME280;62276;51.138;6.950;2022-08-20T00:59:58;101040.00;;;21.24;89.10
71248;BME280;62276;51.138;6.950;2022-08-20T01:02:30;101041.00;;;21.19;89.21
71248;BME280;62276;51.138;6.950;2022-08-20T01:05:00;101040.00;;;21.14;90.00
71248;BME280;62276;51.138;6.950;2022-08-20T01:07:30;101040.00;;;21.09;89.99
71248;BME280;62276;51.138;6.950;2022-08-20T01:10:03;101040.00;;;21.05;90.36
71248;BME280;62276;51.138;6.950;2022-08-20T01:12:30;101041.00;;;21.01;90.29
71248;BME280;62276;51.138;6.950;2022-08-20T01:15:03;101042.00;;;20.98;90.70
71248;BME280;62276;51.138;6.950;2022-08-20T01:17:33;101042.00;;;20.94;90.90
71248;BME280;62276;51.138;6.950;2022-08-20T01:20:06;101041.00;;;20.91;90.80
71248;BME280;62276;51.138;6.950;2022-08-20T01:22:43;101039.00;;;20.87;91.13
71248;BME280;62276;51.138;6.950;2022-08-20T01:25:07;101036.00;;;20.83;91.67
71248;BME280;62276;51.138;6.950;2022-08-20T01:27:33;101034.00;;;20.80;91.53
71248;BME280;62276;51.138;6.950;2022-08-20T01:30:04;101033.00;;;20.76;91.07
71248;BME280;62276;51.138;6.950;2022-08-20T01:32:33;101032.00;;;20.72;91.17
71248;BME280;62276;51.138;6.950;2022-08-20T01:35:04;101032.00;;;20.68;91.39
71248;BME280;62276;51.138;6.950;2022-08-20T01:37:34;101034.00;;;20.65;91.53
71248;BME280;62276;51.138;6.950;2022-08-20T01:40:07;101035.00;;;20.62;91.62
71248;BME280;62276;51.138;6.950;2022-08-20T01:42:40;101037.00;;;20.59;91.77
71248;BME280;62276;51.138;6.950;2022-08-20T01:45:06;101039.00;;;20.56;91.87
71248;BME280;62276;51.138;6.950;2022-08-20T01:47:35;101040.00;;;20.54;92.06
71248;BME280;62276;51.138;6.950;2022-08-20T01:50:10;101043.00;;;20.52;91.94
71248;BME280;62276;51.138;6.950;2022-08-20T01:52:42;101046.00;;;20.50;92.07
71248;BME280;62276;51.138;6.950;2022-08-20T01:55:07;101048.00;;;20.49;92.25
71248;BME280;62276;51.138;6.950;2022-08-20T01:57:37;101050.00;;;20.48;92.37
71248;BME280;62276;51.138;6.950;2022-08-20T02:00:11;101051.00;;;20.48;92.20
71248;BME280;62276;51.138;6.950;2022-08-20T02:02:38;101051.00;;;20.47;92.11
71248;BME280;62276;51.138;6.950;2022-08-20T02:05:08;101049.00;;;20.46;92.32
71248;BME280;62276;51.138;6.950;2022-08-20T02:07:39;101048.00;;;20.45;92.46
71248;BME280;62276;51.138;6.950;2022-08-20T02:10:10;101049.00;;;20.45;92.53
71248;BME280;62276;51.138;6.950;2022-08-20T02:12:39;101053.00;;;20.44;92.74
71248;BME280;62276;51.138;6.950;2022-08-20T02:15:11;101055.00;;;20.44;92.70
71248;BME280;62276;51.138;6.950;2022-08-20T02:17:41;101057.00;;;20.43;92.80
71248;BME280;62276;51.138;6.950;2022-08-20T02:20:13;101058.00;;;20.42;92.78
71248;BME280;62276;51.138;6.950;2022-08-20T02:22:49;101060.00;;;20.42;92.82
71248;BME280;62276;51.138;6.950;2022-08-20T02:25:12;101061.00;;;20.41;92.87
71248;BME280;62276;51.138;6.950;2022-08-20T02:27:43;101061.00;;;20.41;92.90
71248;BME280;62276;51.138;6.950;2022-08-20T02:30:16;101061.00;;;20.40;92.87
71248;BME280;62276;51.138;6.950;2022-08-20T02:32:42;101060.00;;;20.40;92.83
71248;BME280;62276;51.138;6.950;2022-08-20T02:35:13;101058.00;;;20.40;92.91
71248;BME280;62276;51.138;6.950;2022-08-20T02:37:46;101058.00;;;20.40;92.94
71248;BME280;62276;51.138;6.950;2022-08-20T02:40:16;101058.00;;;20.40;92.66
71248;BME280;62276;51.138;6.950;2022-08-20T02:42:44;101056.00;;;20.40;92.67
71248;BME280;62276;51.138;6.950;2022-08-20T02:45:16;101057.00;;;20.40;92.41
71248;BME280;62276;51.138;6.950;2022-08-20T02:47:45;101057.00;;;20.39;92.36
71248;BME280;62276;51.138;6.950;2022-08-20T02:50:18;101056.00;;;20.39;92.58
71248;BME280;62276;51.138;6.950;2022-08-20T02:52:46;101056.00;;;20.38;92.54
71248;BME280;62276;51.138;6.950;2022-08-20T02:55:16;101056.00;;;20.37;92.58
71248;BME280;62276;51.138;6.950;2022-08-20T02:57:46;101056.00;;;20.37;92.73
71248;BME280;62276;51.138;6.950;2022-08-20T03:00:19;101058.00;;;20.36;92.84
71248;BME280;62276;51.138;6.950;2022-08-20T03:02:47;101058.00;;;20.35;92.77
71248;BME280;62276;51.138;6.950;2022-08-20T03:05:18;101059.00;;;20.34;92.67
71248;BME280;62276;51.138;6.950;2022-08-20T03:07:50;101059.00;;;20.34;92.72
71248;BME280;62276;51.138;6.950;2022-08-20T03:10:27;101058.00;;;20.33;92.87
71248;BME280;62276;51.138;6.950;2022-08-20T03:12:48;101057.00;;;20.32;92.73
71248;BME280;62276;51.138;6.950;2022-08-20T03:15:19;101055.00;;;20.31;92.54
71248;BME280;62276;51.138;6.950;2022-08-20T03:17:49;101053.00;;;20.29;92.49
71248;BME280;62276;51.138;6.950;2022-08-20T03:20:20;101052.00;;;20.27;92.47
71248;BME280;62276;51.138;6.950;2022-08-20T03:22:50;101051.00;;;20.25;92.49
71248;BME280;62276;51.138;6.950;2022-08-20T03:25:21;101050.00;;;20.22;92.36
71248;BME280;62276;51.138;6.950;2022-08-20T03:27:52;101048.00;;;20.20;92.25
71248;BME280;62276;51.138;6.950;2022-08-20T03:30:24;101047.00;;;20.17;92.39
71248;BME280;62276;51.138;6.950;2022-08-20T03:32:53;101047.00;;;20.14;92.66
71248;BME280;62276;51.138;6.950;2022-08-20T03:35:25;101047.00;;;20.11;92.52
71248;BME280;62276;51.138;6.950;2022-08-20T03:37:53;101047.00;;;20.08;92.42
71248;BME280;62276;51.138;6.950;2022-08-20T03:40:27;101046.00;;;20.05;92.64
71248;BME280;62276;51.138;6.950;2022-08-20T03:42:54;101046.00;;;20.03;92.97
71248;BME280;62276;51.138;6.950;2022-08-20T03:45:26;101043.00;;;20.02;93.17
71248;BME280;62276;51.138;6.950;2022-08-20T03:47:54;101043.00;;;20.01;93.14
71248;BME280;62276;51.138;6.950;2022-08-20T03:50:27;101042.00;;;20.01;92.99
71248;BME280;62276;51.138;6.950;2022-08-20T03:52:56;101040.00;;;20.02;92.91
71248;BME280;62276;51.138;6.950;2022-08-20T03:55:28;101038.00;;;20.02;92.85
71248;BME280;62276;51.138;6.950;2022-08-20T03:57:59;101034.00;;;20.03;92.64
71248;BME280;62276;51.138;6.950;2022-08-20T04:00:29;101031.00;;;20.04;92.13
71248;BME280;62276;51.138;6.950;2022-08-20T04:02:56;101029.00;;;20.04;92.36
71248;BME280;62276;51.138;6.950;2022-08-20T04:05:28;101030.00;;;20.04;92.48
71248;BME280;62276;51.138;6.950;2022-08-20T04:08:02;101030.00;;;20.05;92.45
71248;BME280;62276;51.138;6.950;2022-08-20T11:17:06;101282.00;;;23.63;79.19
71248;BME280;62276;51.138;6.950;2022-08-20T11:19:41;101282.00;;;23.29;78.85
71248;BME280;62276;51.138;6.950;2022-08-20T11:22:07;101281.00;;;23.07;80.12
71248;BME280;62276;51.138;6.950;2022-08-20T11:24:37;101280.00;;;22.99;78.18
71248;BME280;62276;51.138;6.950;2022-08-20T11:27:08;101279.00;;;23.05;76.96
71248;BME280;62276;51.138;6.950;2022-08-20T11:29:38;101277.00;;;23.21;76.03
71248;BME280;62276;51.138;6.950;2022-08-20T11:32:08;101277.00;;;23.35;75.08
71248;BME280;62276;51.138;6.950;2022-08-20T11:34:38;101278.00;;;23.44;73.68
71248;BME280;62276;51.138;6.950;2022-08-20T11:37:09;101279.00;;;23.47;73.90
71248;BME280;62276;51.138;6.950;2022-08-20T11:39:40;101279.00;;;23.45;74.91
71248;BME280;62276;51.138;6.950;2022-08-20T11:42:10;101279.00;;;23.41;74.22
71248;BME280;62276;51.138;6.950;2022-08-20T11:44:41;101280.00;;;23.39;74.12
71248;BME280;62276;51.138;6.950;2022-08-20T11:47:20;101280.00;;;23.45;73.99
71248;BME280;62276;51.138;6.950;2022-08-20T11:49:42;101280.00;;;23.53;73.05
71248;BME280;62276;51.138;6.950;2022-08-20T11:52:12;101281.00;;;23.60;72.39
71248;BME280;62276;51.138;6.950;2022-08-20T11:54:42;101279.00;;;23.64;71.29
71248;BME280;62276;51.138;6.950;2022-08-20T11:57:19;101280.00;;;23.68;73.32
71248;BME280;62276;51.138;6.950;2022-08-20T11:59:47;101278.00;;;23.73;71.86
71248;BME280;62276;51.138;6.950;2022-08-20T12:02:14;101278.00;;;23.78;71.15
71248;BME280;62276;51.138;6.950;2022-08-20T12:04:44;101276.00;;;23.91;70.93
71248;BME280;62276;51.138;6.950;2022-08-20T12:07:16;101273.00;;;24.09;70.00
71248;BME280;62276;51.138;6.950;2022-08-20T12:09:46;101272.00;;;24.22;68.00
71248;BME280;62276;51.138;6.950;2022-08-20T12:12:17;101271.00;;;24.33;68.13
71248;BME280;62276;51.138;6.950;2022-08-20T12:14:46;101269.00;;;24.50;66.28
71248;BME280;62276;51.138;6.950;2022-08-20T12:17:18;101267.00;;;24.64;66.21
71248;BME280;62276;51.138;6.950;2022-08-20T12:19:47;101266.00;;;24.77;69.83
71248;BME280;62276;51.138;6.950;2022-08-20T12:22:17;101265.00;;;25.01;66.63
71248;BME280;62276;51.138;6.950;2022-08-20T12:24:48;101262.00;;;25.32;61.31
71248;BME280;62276;51.138;6.950;2022-08-20T12:27:23;101262.00;;;25.64;59.86
71248;BME280;62276;51.138;6.950;2022-08-20T12:29:51;101260.00;;;25.88;60.02
71248;BME280;62276;51.138;6.950;2022-08-20T12:32:20;101258.00;;;25.95;60.12
71248;BME280;62276;51.138;6.950;2022-08-20T12:34:50;101257.00;;;25.97;62.37
71248;BME280;62276;51.138;6.950;2022-08-20T12:37:23;101255.00;;;26.06;61.61
71248;BME280;62276;51.138;6.950;2022-08-20T12:39:53;101253.00;;;26.17;59.41
71248;BME280;62276;51.138;6.950;2022-08-20T12:42:23;101252.00;;;26.32;60.92
71248;BME280;62276;51.138;6.950;2022-08-20T12:44:52;101251.00;;;26.49;56.88
71248;BME280;62276;51.138;6.950;2022-08-20T12:47:27;101252.00;;;26.66;56.21
71248;BME280;62276;51.138;6.950;2022-08-20T12:49:55;101250.00;;;26.69;58.03
71248;BME280;62276;51.138;6.950;2022-08-20T12:52:24;101249.00;;;26.59;60.30
71248;BME280;62276;51.138;6.950;2022-08-20T12:54:55;101248.00;;;26.41;61.81
71248;BME280;62276;51.138;6.950;2022-08-20T12:57:28;101247.00;;;26.41;59.15
71248;BME280;62276;51.138;6.950;2022-08-20T12:59:58;101245.00;;;26.69;56.35
71248;BME280;62276;51.138;6.950;2022-08-20T13:02:26;101243.00;;;27.06;53.33
71248;BME280;62276;51.138;6.950;2022-08-20T13:04:57;101241.00;;;27.48;54.17
71248;BME280;62276;51.138;6.950;2022-08-20T13:07:27;101238.00;;;28.06;50.66
71248;BME280;62276;51.138;6.950;2022-08-20T13:09:58;101236.00;;;28.69;48.50
71248;BME280;62276;51.138;6.950;2022-08-20T13:12:28;101234.00;;;29.09;46.77
71248;BME280;62276;51.138;6.950;2022-08-20T13:14:58;101231.00;;;29.16;49.02
71248;BME280;62276;51.138;6.950;2022-08-20T13:17:29;101229.00;;;29.03;50.45
71248;BME280;62276;51.138;6.950;2022-08-20T13:19:59;101227.00;;;28.92;51.02
71248;BME280;62276;51.138;6.950;2022-08-20T13:22:29;101225.00;;;28.92;50.55
71248;BME280;62276;51.138;6.950;2022-08-20T13:24:59;101223.00;;;29.07;49.54
71248;BME280;62276;51.138;6.950;2022-08-20T13:27:30;101221.00;;;29.31;48.73
71248;BME280;62276;51.138;6.950;2022-08-20T13:30:00;101219.00;;;29.37;49.21
71248;BME280;62276;51.138;6.950;2022-08-20T13:32:30;101217.00;;;29.21;50.85
71248;BME280;62276;51.138;6.950;2022-08-20T13:35:01;101215.00;;;28.90;53.05
71248;BME280;62276;51.138;6.950;2022-08-20T13:37:31;101214.00;;;28.64;52.74
71248;BME280;62276;51.138;6.950;2022-08-20T13:40:03;101212.00;;;28.54;55.32
71248;BME280;62276;51.138;6.950;2022-08-20T13:42:33;101211.00;;;28.60;50.59
71248;BME280;62276;51.138;6.950;2022-08-20T13:45:03;101212.00;;;28.59;49.60
71248;BME280;62276;51.138;6.950;2022-08-20T13:47:35;101212.00;;;28.53;51.36
71248;BME280;62276;51.138;6.950;2022-08-20T13:50:17;101211.00;;;28.47;50.99
71248;BME280;62276;51.138;6.950;2022-08-20T13:52:35;101210.00;;;28.38;51.52
71248;BME280;62276;51.138;6.950;2022-08-20T13:55:08;101208.00;;;28.30;52.02
71248;BME280;62276;51.138;6.950;2022-08-20T13:57:36;101209.00;;;28.23;51.30
71248;BME280;62276;51.138;6.950;2022-08-20T14:00:09;101210.00;;;28.19;48.54
71248;BME280;62276;51.138;6.950;2022-08-20T14:02:37;101209.00;;;28.17;48.09
71248;BME280;62276;51.138;6.950;2022-08-20T14:05:08;101208.00;;;28.17;48.93
71248;BME280;62276;51.138;6.950;2022-08-20T14:07:38;101207.00;;;28.17;48.97
71248;BME280;62276;51.138;6.950;2022-08-20T14:10:11;101206.00;;;28.17;46.85
71248;BME280;62276;51.138;6.950;2022-08-20T14:12:38;101206.00;;;28.15;47.70
71248;BME280;62276;51.138;6.950;2022-08-20T14:15:09;101205.00;;;28.11;46.89
71248;BME280;62276;51.138;6.950;2022-08-20T14:17:41;101204.00;;;28.09;48.24
71248;BME280;62276;51.138;6.950;2022-08-20T14:20:13;101203.00;;;28.08;49.29
71248;BME280;62276;51.138;6.950;2022-08-20T14:22:40;101203.00;;;28.10;46.51
71248;BME280;62276;51.138;6.950;2022-08-20T14:25:12;101203.00;;;28.11;48.67
71248;BME280;62276;51.138;6.950;2022-08-20T14:27:41;101202.00;;;28.13;45.80
71248;BME280;62276;51.138;6.950;2022-08-20T14:30:14;101202.00;;;28.20;48.40
71248;BME280;62276;51.138;6.950;2022-08-20T14:32:42;101199.00;;;28.30;46.32
71248;BME280;62276;51.138;6.950;2022-08-20T14:35:13;101197.00;;;28.37;47.80
71248;BME280;62276;51.138;6.950;2022-08-20T14:37:46;101195.00;;;28.43;48.18
71248;BME280;62276;51.138;6.950;2022-08-20T14:40:15;101192.00;;;28.45;46.09
71248;BME280;62276;51.138;6.950;2022-08-20T14:42:44;101191.00;;;28.39;47.36
71248;BME280;62276;51.138;6.950;2022-08-20T14:45:15;101190.00;;;28.26;48.54
71248;BME280;62276;51.138;6.950;2022-08-20T14:47:50;101188.00;;;28.13;46.77
71248;BME280;62276;51.138;6.950;2022-08-20T14:50:21;101187.00;;;27.98;46.37
71248;BME280;62276;51.138;6.950;2022-08-20T14:52:46;101186.00;;;27.87;48.34
71248;BME280;62276;51.138;6.950;2022-08-20T14:55:19;101184.00;;;27.78;46.22
71248;BME280;62276;51.138;6.950;2022-08-20T14:57:46;101185.00;;;27.76;48.71
71248;BME280;62276;51.138;6.950;2022-08-20T15:00:19;101184.00;;;27.79;46.80
71248;BME280;62276;51.138;6.950;2022-08-20T15:02:46;101183.00;;;27.87;45.82
71248;BME280;62276;51.138;6.950;2022-08-20T15:05:16;101183.00;;;27.97;43.98
71248;BME280;62276;51.138;6.950;2022-08-20T15:07:48;101183.00;;;28.14;45.89
71248;BME280;62276;51.138;6.950;2022-08-20T15:10:19;101181.00;;;28.39;42.77
71248;BME280;62276;51.138;6.950;2022-08-20T15:12:48;101182.00;;;28.74;40.75
71248;BME280;62276;51.138;6.950;2022-08-20T15:15:19;101181.00;;;29.14;39.35
71248;BME280;62276;51.138;6.950;2022-08-20T15:17:52;101181.00;;;29.47;41.35
71248;BME280;62276;51.138;6.950;2022-08-20T15:20:22;101180.00;;;29.69;39.26
71248;BME280;62276;51.138;6.950;2022-08-20T15:22:50;101179.00;;;29.78;40.27
71248;BME280;62276;51.138;6.950;2022-08-20T15:25:23;101179.00;;;29.91;39.85
71248;BME280;62276;51.138;6.950;2022-08-20T15:27:54;101176.00;;;30.11;37.81
71248;BME280;62276;51.138;6.950;2022-08-20T15:30:22;101176.00;;;30.39;36.40
71248;BME280;62276;51.138;6.950;2022-08-20T15:32:52;101176.00;;;30.68;36.82
71248;BME280;62276;51.138;6.950;2022-08-20T15:35:24;101176.00;;;31.01;36.15
71248;BME280;62276;51.138;6.950;2022-08-20T15:37:54;101176.00;;;31.38;34.50
71248;BME280;62276;51.138;6.950;2022-08-20T15:40:26;101176.00;;;31.75;33.76
71248;BME280;62276;51.138;6.950;2022-08-20T15:42:54;101175.00;;;32.07;33.76
71248;BME280;62276;51.138;6.950;2022-08-20T15:45:24;101174.00;;;32.31;33.85
71248;BME280;62276;51.138;6.950;2022-08-20T15:48:12;101174.00;;;32.32;34.41
71248;BME280;62276;51.138;6.950;2022-08-20T15:50:54;101175.00;;;32.08;39.59
71248;BME280;62276;51.138;6.950;2022-08-20T15:52:56;101174.00;;;31.76;37.91
71248;BME280;62276;51.138;6.950;2022-08-20T15:55:26;101174.00;;;31.37;39.43
71248;BME280;62276;51.138;6.950;2022-08-20T15:58:13;101175.00;;;31.03;41.93
71248;BME280;62276;51.138;6.950;2022-08-20T16:00:39;101175.00;;;30.59;42.38
71248;BME280;62276;51.138;6.950;2022-08-20T16:03:37;101175.00;;;30.07;43.10
71248;BME280;62276;51.138;6.950;2022-08-20T16:05:52;101175.00;;;29.69;43.79
71248;BME280;62276;51.138;6.950;2022-08-20T16:08:14;101174.00;;;29.58;43.41
71248;BME280;62276;51.138;6.950;2022-08-20T16:13:05;101173.00;;;29.85;39.54
71248;BME280;62276;51.138;6.950;2022-08-20T16:15:33;101172.00;;;29.95;38.43
71248;BME280;62276;51.138;6.950;2022-08-20T16:18:07;101171.00;;;30.03;38.58
71248;BME280;62276;51.138;6.950;2022-08-20T16:20:38;101171.00;;;30.14;38.34
71248;BME280;62276;51.138;6.950;2022-08-20T16:23:02;101170.00;;;30.26;42.17
71248;BME280;62276;51.138;6.950;2022-08-20T16:28:24;101169.00;;;30.68;38.94
71248;BME280;62276;51.138;6.950;2022-08-20T16:30:41;101169.00;;;30.88;38.22
71248;BME280;62276;51.138;6.950;2022-08-20T16:35:56;101168.00;;;31.22;38.06
71248;BME280;62276;51.138;6.950;2022-08-20T16:38:10;101166.00;;;31.33;36.06
71248;BME280;62276;51.138;6.950;2022-08-20T16:40:54;101165.00;;;31.42;36.31
71248;BME280;62276;51.138;6.950;2022-08-20T16:43:06;101164.00;;;31.52;35.71
71248;BME280;62276;51.138;6.950;2022-08-20T16:45:45;101163.00;;;31.52;36.34
71248;BME280;62276;51.138;6.950;2022-08-20T16:48:08;101163.00;;;31.31;36.43
71248;BME280;62276;51.138;6.950;2022-08-20T16:50:44;101162.00;;;30.95;39.06
71248;BME280;62276;51.138;6.950;2022-08-20T16:53:15;101160.00;;;30.47;40.24
71248;BME280;62276;51.138;6.950;2022-08-20T16:55:37;101158.00;;;29.95;42.16
71248;BME280;62276;51.138;6.950;2022-08-20T16:58:08;101157.00;;;29.43;42.94
71248;BME280;62276;51.138;6.950;2022-08-20T17:00:39;101157.00;;;28.92;44.59
71248;BME280;62276;51.138;6.950;2022-08-20T17:05:49;101155.00;;;27.99;45.65
71248;BME280;62276;51.138;6.950;2022-08-20T17:08:21;101153.00;;;27.57;47.25
71248;BME280;62276;51.138;6.950;2022-08-20T17:10:57;101152.00;;;27.20;47.28
71248;BME280;62276;51.138;6.950;2022-08-20T17:13:21;101152.00;;;26.86;51.79
71248;BME280;62276;51.138;6.950;2022-08-20T17:15:56;101153.00;;;26.54;48.39
71248;BME280;62276;51.138;6.950;2022-08-20T17:18:25;101154.00;;;26.26;48.84
71248;BME280;62276;51.138;6.950;2022-08-20T17:20:44;101156.00;;;26.01;50.27
71248;BME280;62276;51.138;6.950;2022-08-20T17:23:17;101159.00;;;25.80;47.72
71248;BME280;62276;51.138;6.950;2022-08-20T17:25:54;101160.00;;;25.63;47.45
71248;BME280;62276;51.138;6.950;2022-08-20T17:28:17;101162.00;;;25.48;47.86
71248;BME280;62276;51.138;6.950;2022-08-20T17:30:46;101163.00;;;25.36;48.64
71248;BME280;62276;51.138;6.950;2022-08-20T17:33:34;101165.00;;;25.26;49.23
71248;BME280;62276;51.138;6.950;2022-08-20T17:35:58;101166.00;;;25.15;49.68
71248;BME280;62276;51.138;6.950;2022-08-20T17:38:47;101168.00;;;25.05;50.64
71248;BME280;62276;51.138;6.950;2022-08-20T17:40:47;101169.00;;;24.95;50.47
71248;BME280;62276;51.138;6.950;2022-08-20T17:43:26;101171.00;;;24.86;50.32
71248;BME280;62276;51.138;6.950;2022-08-20T17:45:49;101173.00;;;24.77;51.56
71248;BME280;62276;51.138;6.950;2022-08-20T17:48:23;101176.00;;;24.69;51.11
71248;BME280;62276;51.138;6.950;2022-08-20T17:50:51;101179.00;;;24.60;51.68
71248;BME280;62276;51.138;6.950;2022-08-20T17:53:23;101181.00;;;24.52;51.39
71248;BME280;62276;51.138;6.950;2022-08-20T17:55:57;101183.00;;;24.44;51.40
71248;BME280;62276;51.138;6.950;2022-08-20T17:58:30;101184.00;;;24.37;51.47
71248;BME280;62276;51.138;6.950;2022-08-20T18:00:52;101186.00;;;24.30;52.36
71248;BME280;62276;51.138;6.950;2022-08-20T18:03:24;101188.00;;;24.24;53.66
71248;BME280;62276;51.138;6.950;2022-08-20T18:06:11;101190.00;;;24.16;52.84
71248;BME280;62276;51.138;6.950;2022-08-20T18:08:33;101192.00;;;24.09;54.80
71248;BME280;62276;51.138;6.950;2022-08-20T18:11:09;101195.00;;;24.01;54.09
71248;BME280;62276;51.138;6.950;2022-08-20T18:15:56;101200.00;;;23.85;55.43
71248;BME280;62276;51.138;6.950;2022-08-20T18:18:30;101203.00;;;23.75;58.01
71248;BME280;62276;51.138;6.950;2022-08-20T18:21:22;101203.00;;;23.64;57.98
71248;BME280;62276;51.138;6.950;2022-08-20T18:23:29;101203.00;;;23.51;60.52
71248;BME280;62276;51.138;6.950;2022-08-20T18:26:03;101203.00;;;23.38;58.92
71248;BME280;62276;51.138;6.950;2022-08-20T18:28:52;101203.00;;;23.24;57.74
71248;BME280;62276;51.138;6.950;2022-08-20T18:31:04;101203.00;;;23.11;58.96
71248;BME280;62276;51.138;6.950;2022-08-20T18:33:35;101204.00;;;22.99;60.01
71248;BME280;62276;51.138;6.950;2022-08-20T18:38:31;101208.00;;;22.74;62.60
71248;BME280;62276;51.138;6.950;2022-08-20T18:41:25;101208.00;;;22.60;62.43
71248;BME280;62276;51.138;6.950;2022-08-20T18:43:31;101210.00;;;22.46;62.47
71248;BME280;62276;51.138;6.950;2022-08-20T18:46:09;101212.00;;;22.31;62.62
71248;BME280;62276;51.138;6.950;2022-08-20T18:48:32;101213.00;;;22.15;63.83
71248;BME280;62276;51.138;6.950;2022-08-20T18:51:07;101215.00;;;22.00;64.32
71248;BME280;62276;51.138;6.950;2022-08-20T18:53:34;101216.00;;;21.85;65.62
71248;BME280;62276;51.138;6.950;2022-08-20T18:56:10;101216.00;;;21.70;65.15
71248;BME280;62276;51.138;6.950;2022-08-20T18:58:59;101216.00;;;21.55;65.89
71248;BME280;62276;51.138;6.950;2022-08-20T19:01:10;101216.00;;;21.41;67.76
71248;BME280;62276;51.138;6.950;2022-08-20T19:03:42;101216.00;;;21.27;67.74
71248;BME280;62276;51.138;6.950;2022-08-20T19:11:39;101218.00;;;20.88;68.85
71248;BME280;62276;51.138;6.950;2022-08-20T19:14:02;101219.00;;;20.76;69.14
71248;BME280;62276;51.138;6.950;2022-08-20T19:16:18;101221.00;;;20.65;70.95
71248;BME280;62276;51.138;6.950;2022-08-20T19:18:45;101222.00;;;20.54;69.82
71248;BME280;62276;51.138;6.950;2022-08-20T19:21:11;101224.00;;;20.43;70.98
71248;BME280;62276;51.138;6.950;2022-08-20T19:23:47;101224.00;;;20.34;70.84
71248;BME280;62276;51.138;6.950;2022-08-20T19:26:14;101226.00;;;20.24;71.74
71248;BME280;62276;51.138;6.950;2022-08-20T19:28:44;101226.00;;;20.16;72.08
71248;BME280;62276;51.138;6.950;2022-08-20T19:31:26;101227.00;;;20.08;72.93
71248;BME280;62276;51.138;6.950;2022-08-20T19:33:43;101228.00;;;20.02;73.72
71248;BME280;62276;51.138;6.950;2022-08-20T19:36:15;101229.00;;;19.96;73.68
71248;BME280;62276;51.138;6.950;2022-08-20T19:38:49;101230.00;;;19.90;73.49
71248;BME280;62276;51.138;6.950;2022-08-20T19:41:22;101232.00;;;19.84;73.91
71248;BME280;62276;51.138;6.950;2022-08-20T19:43:43;101233.00;;;19.77;73.24
71248;BME280;62276;51.138;6.950;2022-08-20T19:46:39;101234.00;;;19.71;74.07
71248;BME280;62276;51.138;6.950;2022-08-20T19:49:10;101236.00;;;19.65;74.40
71248;BME280;62276;51.138;6.950;2022-08-20T19:51:44;101237.00;;;19.59;74.69
71248;BME280;62276;51.138;6.950;2022-08-20T19:53:47;101239.00;;;19.52;74.99
71248;BME280;62276;51.138;6.950;2022-08-20T19:56:25;101240.00;;;19.46;75.10
71248;BME280;62276;51.138;6.950;2022-08-20T19:59:01;101242.00;;;19.40;75.36
71248;BME280;62276;51.138;6.950;2022-08-20T20:01:19;101245.00;;;19.34;75.32
71248;BME280;62276;51.138;6.950;2022-08-20T20:04:01;101247.00;;;19.28;76.37
71248;BME280;62276;51.138;6.950;2022-08-20T20:06:19;101249.00;;;19.22;76.60
71248;BME280;62276;51.138;6.950;2022-08-20T20:08:55;101249.00;;;19.17;77.22
71248;BME280;62276;51.138;6.950;2022-08-20T20:11:23;101249.00;;;19.12;77.44
71248;BME280;62276;51.138;6.950;2022-08-20T20:13:49;101249.00;;;19.07;77.44
71248;BME280;62276;51.138;6.950;2022-08-20T20:16:20;101249.00;;;19.02;77.24
71248;BME280;62276;51.138;6.950;2022-08-20T20:18:50;101250.00;;;18.96;78.85
71248;BME280;62276;51.138;6.950;2022-08-20T20:21:24;101250.00;;;18.91;77.77
71248;BME280;62276;51.138;6.950;2022-08-20T20:23:59;101251.00;;;18.86;78.69
71248;BME280;62276;51.138;6.950;2022-08-20T20:26:22;101251.00;;;18.81;78.78
71248;BME280;62276;51.138;6.950;2022-08-20T20:28:58;101252.00;;;18.77;78.88
71248;BME280;62276;51.138;6.950;2022-08-20T20:31:28;101254.00;;;18.74;80.65
71248;BME280;62276;51.138;6.950;2022-08-20T20:33:55;101256.00;;;18.72;81.33